Terminal Aerodrome Forecast
Issued by NWS

Current Version | Previous Version | Graphics & Text | Print | Product List | Glossary On
Versions: 1 2 3 4 5 6 7 8 9 10 11 12 13 14 15 16 17 18
470
FTUS41 KILN 191123
TAFLCK
TAF
KLCK 191123Z 1912/2012 30012G20KT P6SM OVC035
     FM192300 28012KT P6SM BKN035
     FM200200 28010KT P6SM SCT035
     FM200800 24008KT P6SM SKC
     FM201100 21008KT P6SM SKC=

USA.gov is the U.S. government's official web portal to all federal, state and local government web resources and services.